METAR Data
IDs: Format: Raw Decoded Include TAF

Data at: 2210 UTC 01 Dec 2021

LEAS 012200Z 28020G38KT 250V310 5000 -SHRA FEW010 SCT025TCU BKN040 08/07 Q1016 TEMPO 3000 SHRA